sensor_id;sensor_type;location;lat;lon;timestamp;P1;durP1;ratioP1;P2;durP2;ratioP2
47545;SDS011;50104;52.002;4.688;2023-04-25T00:04:07;6.70;;;2.47;;
47545;SDS011;50104;52.002;4.688;2023-04-25T00:09:08;10.98;;;3.10;;
47545;SDS011;50104;52.002;4.688;2023-04-25T00:14:10;10.40;;;2.30;;
47545;SDS011;50104;52.002;4.688;2023-04-25T00:19:11;13.68;;;2.88;;
47545;SDS011;50104;52.002;4.688;2023-04-25T00:24:13;12.23;;;3.08;;
47545;SDS011;50104;52.002;4.688;2023-04-25T00:29:14;11.07;;;2.40;;
47545;SDS011;50104;52.002;4.688;2023-04-25T00:34:15;12.00;;;3.28;;
47545;SDS011;50104;52.002;4.688;2023-04-25T00:39:16;11.50;;;3.28;;
47545;SDS011;50104;52.002;4.688;2023-04-25T00:44:16;15.02;;;2.78;;
47545;SDS011;50104;52.002;4.688;2023-04-25T00:49:17;10.95;;;2.17;;
47545;SDS011;50104;52.002;4.688;2023-04-25T00:54:21;8.05;;;2.38;;
47545;SDS011;50104;52.002;4.688;2023-04-25T00:59:22;11.52;;;3.00;;
47545;SDS011;50104;52.002;4.688;2023-04-25T01:04:24;8.73;;;2.83;;
47545;SDS011;50104;52.002;4.688;2023-04-25T01:09:27;9.90;;;2.65;;
47545;SDS011;50104;52.002;4.688;2023-04-25T01:14:30;15.07;;;2.95;;
47545;SDS011;50104;52.002;4.688;2023-04-25T01:19:31;6.03;;;2.92;;
47545;SDS011;50104;52.002;4.688;2023-04-25T01:24:32;8.52;;;2.30;;
47545;SDS011;50104;52.002;4.688;2023-04-25T01:29:34;11.75;;;2.20;;
47545;SDS011;50104;52.002;4.688;2023-04-25T01:34:36;13.35;;;2.78;;
47545;SDS011;50104;52.002;4.688;2023-04-25T01:39:36;7.57;;;3.88;;
47545;SDS011;50104;52.002;4.688;2023-04-25T01:44:37;7.05;;;2.42;;
47545;SDS011;50104;52.002;4.688;2023-04-25T01:49:38;9.73;;;2.70;;
47545;SDS011;50104;52.002;4.688;2023-04-25T01:54:40;6.70;;;2.40;;
47545;SDS011;50104;52.002;4.688;2023-04-25T01:59:44;9.63;;;2.40;;
47545;SDS011;50104;52.002;4.688;2023-04-25T02:04:45;4.75;;;2.30;;
47545;SDS011;50104;52.002;4.688;2023-04-25T02:09:46;6.88;;;2.38;;
47545;SDS011;50104;52.002;4.688;2023-04-25T02:14:47;8.93;;;3.15;;
47545;SDS011;50104;52.002;4.688;2023-04-25T02:19:47;13.88;;;2.90;;
47545;SDS011;50104;52.002;4.688;2023-04-25T02:24:48;6.78;;;2.90;;
47545;SDS011;50104;52.002;4.688;2023-04-25T02:29:50;10.68;;;3.28;;
47545;SDS011;50104;52.002;4.688;2023-04-25T02:34:51;10.67;;;2.90;;
47545;SDS011;50104;52.002;4.688;2023-04-25T02:39:51;12.63;;;3.53;;
47545;SDS011;50104;52.002;4.688;2023-04-25T02:44:52;6.20;;;2.58;;
47545;SDS011;50104;52.002;4.688;2023-04-25T02:49:53;11.93;;;2.45;;
47545;SDS011;50104;52.002;4.688;2023-04-25T02:54:54;9.90;;;2.43;;
47545;SDS011;50104;52.002;4.688;2023-04-25T02:59:55;8.68;;;2.67;;
47545;SDS011;50104;52.002;4.688;2023-04-25T03:04:56;13.32;;;2.95;;
47545;SDS011;50104;52.002;4.688;2023-04-25T03:09:56;6.93;;;2.50;;
47545;SDS011;50104;52.002;4.688;2023-04-25T03:14:57;6.78;;;2.30;;
47545;SDS011;50104;52.002;4.688;2023-04-25T03:19:58;6.45;;;2.25;;
47545;SDS011;50104;52.002;4.688;2023-04-25T03:24:59;7.15;;;2.70;;
47545;SDS011;50104;52.002;4.688;2023-04-25T03:30:00;7.03;;;2.23;;
47545;SDS011;50104;52.002;4.688;2023-04-25T03:35:01;14.18;;;2.08;;
47545;SDS011;50104;52.002;4.688;2023-04-25T03:40:02;7.88;;;2.00;;
47545;SDS011;50104;52.002;4.688;2023-04-25T03:45:04;6.25;;;2.88;;
47545;SDS011;50104;52.002;4.688;2023-04-25T03:50:07;4.93;;;1.58;;
47545;SDS011;50104;52.002;4.688;2023-04-25T03:55:08;8.17;;;2.13;;
47545;SDS011;50104;52.002;4.688;2023-04-25T04:00:09;9.13;;;2.00;;
47545;SDS011;50104;52.002;4.688;2023-04-25T04:05:11;5.32;;;1.55;;
47545;SDS011;50104;52.002;4.688;2023-04-25T04:10:12;6.93;;;1.60;;
47545;SDS011;50104;52.002;4.688;2023-04-25T04:15:13;8.23;;;2.03;;
47545;SDS011;50104;52.002;4.688;2023-04-25T04:20:14;10.20;;;1.70;;
47545;SDS011;50104;52.002;4.688;2023-04-25T04:25:14;15.18;;;1.63;;
47545;SDS011;50104;52.002;4.688;2023-04-25T04:30:15;5.82;;;2.72;;
47545;SDS011;50104;52.002;4.688;2023-04-25T04:35:16;7.45;;;1.38;;
47545;SDS011;50104;52.002;4.688;2023-04-25T04:40:17;5.57;;;1.58;;
47545;SDS011;50104;52.002;4.688;2023-04-25T04:45:18;7.00;;;1.98;;
47545;SDS011;50104;52.002;4.688;2023-04-25T04:50:20;3.70;;;1.70;;
47545;SDS011;50104;52.002;4.688;2023-04-25T04:55:21;6.72;;;1.75;;
47545;SDS011;50104;52.002;4.688;2023-04-25T05:00:22;8.23;;;2.00;;
47545;SDS011;50104;52.002;4.688;2023-04-25T05:05:23;9.48;;;2.15;;
47545;SDS011;50104;52.002;4.688;2023-04-25T05:10:25;6.53;;;1.90;;
47545;SDS011;50104;52.002;4.688;2023-04-25T05:15:26;4.38;;;1.52;;
47545;SDS011;50104;52.002;4.688;2023-04-25T05:20:27;7.18;;;1.90;;
47545;SDS011;50104;52.002;4.688;2023-04-25T05:25:28;5.70;;;1.83;;
47545;SDS011;50104;52.002;4.688;2023-04-25T05:30:28;8.48;;;1.63;;
47545;SDS011;50104;52.002;4.688;2023-04-25T05:35:30;8.65;;;2.17;;
47545;SDS011;50104;52.002;4.688;2023-04-25T05:40:31;5.88;;;1.67;;
47545;SDS011;50104;52.002;4.688;2023-04-25T05:45:32;5.85;;;1.80;;
47545;SDS011;50104;52.002;4.688;2023-04-25T05:50:33;5.50;;;1.48;;
47545;SDS011;50104;52.002;4.688;2023-04-25T05:55:34;5.78;;;1.40;;
47545;SDS011;50104;52.002;4.688;2023-04-25T06:00:35;1.88;;;1.20;;
47545;SDS011;50104;52.002;4.688;2023-04-25T06:05:36;3.75;;;1.10;;
47545;SDS011;50104;52.002;4.688;2023-04-25T06:10:37;5.20;;;1.13;;
47545;SDS011;50104;52.002;4.688;2023-04-25T06:15:38;1.23;;;0.90;;
47545;SDS011;50104;52.002;4.688;2023-04-25T06:20:40;5.93;;;1.23;;
47545;SDS011;50104;52.002;4.688;2023-04-25T06:25:41;2.60;;;1.30;;
47545;SDS011;50104;52.002;4.688;2023-04-25T06:30:41;4.22;;;1.27;;
47545;SDS011;50104;52.002;4.688;2023-04-25T06:35:42;3.58;;;1.17;;
47545;SDS011;50104;52.002;4.688;2023-04-25T06:40:43;2.90;;;0.90;;
47545;SDS011;50104;52.002;4.688;2023-04-25T06:45:44;4.10;;;1.67;;
47545;SDS011;50104;52.002;4.688;2023-04-25T06:50:45;2.53;;;1.15;;
47545;SDS011;50104;52.002;4.688;2023-04-25T06:55:46;4.82;;;1.27;;
47545;SDS011;50104;52.002;4.688;2023-04-25T07:00:47;2.17;;;1.20;;
47545;SDS011;50104;52.002;4.688;2023-04-25T07:05:48;2.97;;;1.20;;
47545;SDS011;50104;52.002;4.688;2023-04-25T07:10:50;3.95;;;1.60;;
47545;SDS011;50104;52.002;4.688;2023-04-25T07:15:50;4.28;;;1.25;;
47545;SDS011;50104;52.002;4.688;2023-04-25T07:20:51;7.90;;;1.38;;
47545;SDS011;50104;52.002;4.688;2023-04-25T07:25:52;3.55;;;1.45;;
47545;SDS011;50104;52.002;4.688;2023-04-25T07:30:53;6.60;;;1.55;;
47545;SDS011;50104;52.002;4.688;2023-04-25T07:35:54;3.80;;;1.70;;
47545;SDS011;50104;52.002;4.688;2023-04-25T07:40:55;2.45;;;1.30;;
47545;SDS011;50104;52.002;4.688;2023-04-25T07:45:56;2.00;;;1.30;;
47545;SDS011;50104;52.002;4.688;2023-04-25T07:50:57;2.90;;;1.05;;
47545;SDS011;50104;52.002;4.688;2023-04-25T07:55:58;8.00;;;1.50;;
47545;SDS011;50104;52.002;4.688;2023-04-25T08:00:59;5.38;;;1.55;;
47545;SDS011;50104;52.002;4.688;2023-04-25T08:06:00;3.35;;;1.00;;
47545;SDS011;50104;52.002;4.688;2023-04-25T08:11:01;3.78;;;1.05;;
47545;SDS011;50104;52.002;4.688;2023-04-25T08:16:02;7.50;;;1.33;;
47545;SDS011;50104;52.002;4.688;2023-04-25T08:21:03;5.80;;;1.20;;
47545;SDS011;50104;52.002;4.688;2023-04-25T08:26:04;5.50;;;0.98;;
47545;SDS011;50104;52.002;4.688;2023-04-25T08:31:05;9.60;;;1.55;;
47545;SDS011;50104;52.002;4.688;2023-04-25T08:36:06;9.73;;;1.85;;
47545;SDS011;50104;52.002;4.688;2023-04-25T08:41:07;3.25;;;0.90;;
47545;SDS011;50104;52.002;4.688;2023-04-25T08:46:11;6.78;;;1.00;;
47545;SDS011;50104;52.002;4.688;2023-04-25T08:51:23;3.05;;;1.13;;
47545;SDS011;50104;52.002;4.688;2023-04-25T08:56:25;2.85;;;0.88;;
47545;SDS011;50104;52.002;4.688;2023-04-25T09:01:27;5.60;;;1.10;;
47545;SDS011;50104;52.002;4.688;2023-04-25T09:06:29;8.18;;;1.08;;
47545;SDS011;50104;52.002;4.688;2023-04-25T09:11:34;2.17;;;0.88;;
47545;SDS011;50104;52.002;4.688;2023-04-25T09:16:44;2.72;;;0.65;;
47545;SDS011;50104;52.002;4.688;2023-04-25T09:22:02;3.70;;;0.90;;
47545;SDS011;50104;52.002;4.688;2023-04-25T09:27:09;4.57;;;0.90;;
47545;SDS011;50104;52.002;4.688;2023-04-25T09:37:17;5.40;;;1.30;;
47545;SDS011;50104;52.002;4.688;2023-04-25T09:42:29;2.63;;;0.70;;
47545;SDS011;50104;52.002;4.688;2023-04-25T09:47:31;2.15;;;0.80;;
47545;SDS011;50104;52.002;4.688;2023-04-25T09:52:40;2.08;;;0.70;;
47545;SDS011;50104;52.002;4.688;2023-04-25T09:57:41;2.25;;;0.82;;
47545;SDS011;50104;52.002;4.688;2023-04-25T10:02:43;5.57;;;1.50;;
47545;SDS011;50104;52.002;4.688;2023-04-25T10:07:48;5.97;;;0.77;;
47545;SDS011;50104;52.002;4.688;2023-04-25T10:12:49;6.80;;;1.00;;
47545;SDS011;50104;52.002;4.688;2023-04-25T10:17:50;5.65;;;1.48;;
47545;SDS011;50104;52.002;4.688;2023-04-25T10:23:03;4.72;;;1.00;;
47545;SDS011;50104;52.002;4.688;2023-04-25T10:28:15;8.55;;;1.13;;
47545;SDS011;50104;52.002;4.688;2023-04-25T10:33:16;2.38;;;0.90;;
47545;SDS011;50104;52.002;4.688;2023-04-25T10:38:18;7.18;;;1.58;;
47545;SDS011;50104;52.002;4.688;2023-04-25T10:43:35;4.20;;;1.00;;
47545;SDS011;50104;52.002;4.688;2023-04-25T10:48:48;4.35;;;0.90;;
47545;SDS011;50104;52.002;4.688;2023-04-25T10:54:00;4.78;;;0.85;;
47545;SDS011;50104;52.002;4.688;2023-04-25T11:04:19;3.53;;;0.77;;
47545;SDS011;50104;52.002;4.688;2023-04-25T11:09:23;3.40;;;1.13;;
47545;SDS011;50104;52.002;4.688;2023-04-25T11:14:24;5.53;;;1.00;;
47545;SDS011;50104;52.002;4.688;2023-04-25T11:19:26;2.30;;;0.90;;
47545;SDS011;50104;52.002;4.688;2023-04-25T11:24:32;3.60;;;0.90;;
47545;SDS011;50104;52.002;4.688;2023-04-25T11:29:36;2.80;;;0.77;;
47545;SDS011;50104;52.002;4.688;2023-04-25T11:34:37;2.25;;;0.90;;
47545;SDS011;50104;52.002;4.688;2023-04-25T11:39:42;4.60;;;0.85;;
47545;SDS011;50104;52.002;4.688;2023-04-25T11:44:45;3.83;;;0.90;;
47545;SDS011;50104;52.002;4.688;2023-04-25T11:49:47;2.15;;;0.98;;
47545;SDS011;50104;52.002;4.688;2023-04-25T11:54:49;5.00;;;1.30;;
47545;SDS011;50104;52.002;4.688;2023-04-25T11:59:50;3.28;;;0.80;;
47545;SDS011;50104;52.002;4.688;2023-04-25T12:04:51;4.05;;;0.88;;
47545;SDS011;50104;52.002;4.688;2023-04-25T12:09:52;6.13;;;1.88;;
47545;SDS011;50104;52.002;4.688;2023-04-25T12:14:53;2.50;;;0.85;;
47545;SDS011;50104;52.002;4.688;2023-04-25T12:19:55;5.00;;;1.42;;
47545;SDS011;50104;52.002;4.688;2023-04-25T12:24:56;3.85;;;0.70;;
47545;SDS011;50104;52.002;4.688;2023-04-25T12:29:58;3.40;;;1.00;;
47545;SDS011;50104;52.002;4.688;2023-04-25T12:34:59;1.83;;;0.50;;
47545;SDS011;50104;52.002;4.688;2023-04-25T12:40:00;2.08;;;0.90;;
47545;SDS011;50104;52.002;4.688;2023-04-25T12:45:01;1.73;;;0.32;;
47545;SDS011;50104;52.002;4.688;2023-04-25T12:50:02;4.25;;;0.70;;
47545;SDS011;50104;52.002;4.688;2023-04-25T12:55:03;1.58;;;0.90;;
47545;SDS011;50104;52.002;4.688;2023-04-25T13:00:06;3.47;;;0.60;;
47545;SDS011;50104;52.002;4.688;2023-04-25T13:05:10;2.33;;;0.98;;
47545;SDS011;50104;52.002;4.688;2023-04-25T13:10:11;5.32;;;0.90;;
47545;SDS011;50104;52.002;4.688;2023-04-25T13:15:12;2.45;;;0.90;;
47545;SDS011;50104;52.002;4.688;2023-04-25T13:20:14;3.10;;;0.80;;
47545;SDS011;50104;52.002;4.688;2023-04-25T13:25:16;5.35;;;1.00;;
47545;SDS011;50104;52.002;4.688;2023-04-25T13:30:17;4.50;;;0.82;;
47545;SDS011;50104;52.002;4.688;2023-04-25T13:35:17;5.72;;;0.90;;
47545;SDS011;50104;52.002;4.688;2023-04-25T13:40:18;3.80;;;1.40;;
47545;SDS011;50104;52.002;4.688;2023-04-25T13:45:19;5.13;;;1.50;;
47545;SDS011;50104;52.002;4.688;2023-04-25T13:50:20;4.90;;;1.08;;
47545;SDS011;50104;52.002;4.688;2023-04-25T13:55:22;3.35;;;0.90;;
47545;SDS011;50104;52.002;4.688;2023-04-25T14:00:22;6.38;;;0.90;;
47545;SDS011;50104;52.002;4.688;2023-04-25T14:05:23;6.05;;;1.20;;
47545;SDS011;50104;52.002;4.688;2023-04-25T14:10:24;2.45;;;0.80;;
47545;SDS011;50104;52.002;4.688;2023-04-25T14:15:25;3.95;;;0.80;;
47545;SDS011;50104;52.002;4.688;2023-04-25T14:20:26;4.22;;;1.10;;
47545;SDS011;50104;52.002;4.688;2023-04-25T14:25:27;3.45;;;1.08;;
47545;SDS011;50104;52.002;4.688;2023-04-25T14:30:29;4.97;;;1.70;;
47545;SDS011;50104;52.002;4.688;2023-04-25T14:35:30;4.72;;;0.80;;
47545;SDS011;50104;52.002;4.688;2023-04-25T14:40:31;2.75;;;0.60;;
47545;SDS011;50104;52.002;4.688;2023-04-25T14:45:33;1.95;;;0.70;;
47545;SDS011;50104;52.002;4.688;2023-04-25T14:50:34;4.30;;;1.90;;
47545;SDS011;50104;52.002;4.688;2023-04-25T14:55:35;5.45;;;1.00;;
47545;SDS011;50104;52.002;4.688;2023-04-25T15:00:36;5.15;;;1.63;;
47545;SDS011;50104;52.002;4.688;2023-04-25T15:05:37;5.50;;;1.00;;
47545;SDS011;50104;52.002;4.688;2023-04-25T15:10:38;3.40;;;0.95;;
47545;SDS011;50104;52.002;4.688;2023-04-25T15:15:38;3.53;;;0.90;;
47545;SDS011;50104;52.002;4.688;2023-04-25T15:20:40;4.57;;;1.20;;
47545;SDS011;50104;52.002;4.688;2023-04-25T15:25:41;2.50;;;1.10;;
47545;SDS011;50104;52.002;4.688;2023-04-25T15:30:43;1.73;;;0.80;;
47545;SDS011;50104;52.002;4.688;2023-04-25T15:35:45;4.95;;;1.30;;
47545;SDS011;50104;52.002;4.688;2023-04-25T15:40:46;4.18;;;1.10;;
47545;SDS011;50104;52.002;4.688;2023-04-25T15:45:47;5.07;;;1.98;;
47545;SDS011;50104;52.002;4.688;2023-04-25T15:50:48;9.15;;;1.50;;
47545;SDS011;50104;52.002;4.688;2023-04-25T15:55:48;3.53;;;1.00;;
47545;SDS011;50104;52.002;4.688;2023-04-25T16:00:51;2.78;;;1.00;;
47545;SDS011;50104;52.002;4.688;2023-04-25T16:05:52;4.93;;;1.08;;
47545;SDS011;50104;52.002;4.688;2023-04-25T16:10:54;5.35;;;1.30;;
47545;SDS011;50104;52.002;4.688;2023-04-25T16:15:55;4.38;;;1.48;;
47545;SDS011;50104;52.002;4.688;2023-04-25T16:20:58;5.25;;;1.10;;
47545;SDS011;50104;52.002;4.688;2023-04-25T16:25:59;4.63;;;1.15;;
47545;SDS011;50104;52.002;4.688;2023-04-25T16:31:00;4.93;;;1.00;;
47545;SDS011;50104;52.002;4.688;2023-04-25T16:36:01;2.35;;;0.95;;
47545;SDS011;50104;52.002;4.688;2023-04-25T16:41:02;4.10;;;1.10;;
47545;SDS011;50104;52.002;4.688;2023-04-25T16:46:03;5.60;;;1.10;;
47545;SDS011;50104;52.002;4.688;2023-04-25T16:51:05;3.25;;;1.40;;
47545;SDS011;50104;52.002;4.688;2023-04-25T16:56:06;4.40;;;2.10;;
47545;SDS011;50104;52.002;4.688;2023-04-25T17:01:07;4.05;;;1.33;;
47545;SDS011;50104;52.002;4.688;2023-04-25T17:06:10;3.60;;;1.00;;
47545;SDS011;50104;52.002;4.688;2023-04-25T17:11:11;2.28;;;1.10;;
47545;SDS011;50104;52.002;4.688;2023-04-25T17:16:12;5.32;;;1.25;;
47545;SDS011;50104;52.002;4.688;2023-04-25T17:21:15;4.72;;;1.58;;
47545;SDS011;50104;52.002;4.688;2023-04-25T17:26:17;4.07;;;1.35;;
47545;SDS011;50104;52.002;4.688;2023-04-25T17:31:18;4.88;;;1.40;;
47545;SDS011;50104;52.002;4.688;2023-04-25T17:36:19;6.43;;;1.10;;
47545;SDS011;50104;52.002;4.688;2023-04-25T17:41:20;6.30;;;1.30;;
47545;SDS011;50104;52.002;4.688;2023-04-25T17:46:22;5.65;;;1.58;;
47545;SDS011;50104;52.002;4.688;2023-04-25T17:51:23;6.50;;;1.73;;
47545;SDS011;50104;52.002;4.688;2023-04-25T17:56:24;4.30;;;1.15;;
47545;SDS011;50104;52.002;4.688;2023-04-25T18:01:25;9.40;;;1.58;;
47545;SDS011;50104;52.002;4.688;2023-04-25T18:06:26;5.18;;;2.00;;
47545;SDS011;50104;52.002;4.688;2023-04-25T18:11:27;4.00;;;1.33;;
47545;SDS011;50104;52.002;4.688;2023-04-25T18:16:29;4.85;;;1.10;;
47545;SDS011;50104;52.002;4.688;2023-04-25T18:21:30;2.47;;;1.20;;
47545;SDS011;50104;52.002;4.688;2023-04-25T18:26:31;4.90;;;1.42;;
47545;SDS011;50104;52.002;4.688;2023-04-25T18:31:32;5.25;;;2.15;;
47545;SDS011;50104;52.002;4.688;2023-04-25T18:36:35;5.75;;;1.58;;
47545;SDS011;50104;52.002;4.688;2023-04-25T18:41:36;4.80;;;2.03;;
47545;SDS011;50104;52.002;4.688;2023-04-25T18:46:37;3.88;;;1.40;;
47545;SDS011;50104;52.002;4.688;2023-04-25T18:51:40;3.72;;;1.73;;
47545;SDS011;50104;52.002;4.688;2023-04-25T18:56:41;3.80;;;1.40;;
47545;SDS011;50104;52.002;4.688;2023-04-25T19:01:42;4.45;;;1.95;;
47545;SDS011;50104;52.002;4.688;2023-04-25T19:06:43;5.68;;;1.58;;
47545;SDS011;50104;52.002;4.688;2023-04-25T19:11:45;7.85;;;2.10;;
47545;SDS011;50104;52.002;4.688;2023-04-25T19:16:46;4.80;;;1.77;;
47545;SDS011;50104;52.002;4.688;2023-04-25T19:21:47;4.45;;;1.75;;
47545;SDS011;50104;52.002;4.688;2023-04-25T19:26:49;4.82;;;1.77;;
47545;SDS011;50104;52.002;4.688;2023-04-25T19:31:50;4.05;;;2.10;;
47545;SDS011;50104;52.002;4.688;2023-04-25T19:36:52;4.22;;;2.33;;
47545;SDS011;50104;52.002;4.688;2023-04-25T19:41:53;5.63;;;2.10;;
47545;SDS011;50104;52.002;4.688;2023-04-25T19:46:55;4.38;;;1.90;;
47545;SDS011;50104;52.002;4.688;2023-04-25T19:51:59;4.07;;;1.77;;
47545;SDS011;50104;52.002;4.688;2023-04-25T19:57:00;7.40;;;1.80;;
47545;SDS011;50104;52.002;4.688;2023-04-25T20:02:02;6.97;;;2.25;;
47545;SDS011;50104;52.002;4.688;2023-04-25T20:07:03;7.28;;;3.72;;
47545;SDS011;50104;52.002;4.688;2023-04-25T20:12:04;8.60;;;3.35;;
47545;SDS011;50104;52.002;4.688;2023-04-25T20:17:06;5.30;;;2.70;;
47545;SDS011;50104;52.002;4.688;2023-04-25T20:22:07;6.05;;;2.75;;
47545;SDS011;50104;52.002;4.688;2023-04-25T20:27:08;7.00;;;2.60;;
47545;SDS011;50104;52.002;4.688;2023-04-25T20:32:09;6.13;;;2.90;;
47545;SDS011;50104;52.002;4.688;2023-04-25T20:37:10;9.65;;;2.67;;
47545;SDS011;50104;52.002;4.688;2023-04-25T20:42:11;5.57;;;2.55;;
47545;SDS011;50104;52.002;4.688;2023-04-25T20:47:11;9.48;;;2.72;;
47545;SDS011;50104;52.002;4.688;2023-04-25T20:52:13;5.72;;;2.53;;
47545;SDS011;50104;52.002;4.688;2023-04-25T20:57:16;13.02;;;3.10;;
47545;SDS011;50104;52.002;4.688;2023-04-25T21:02:17;6.00;;;2.67;;
47545;SDS011;50104;52.002;4.688;2023-04-25T21:07:18;4.82;;;2.50;;
47545;SDS011;50104;52.002;4.688;2023-04-25T21:12:19;7.13;;;3.63;;
47545;SDS011;50104;52.002;4.688;2023-04-25T21:17:20;6.80;;;3.50;;
47545;SDS011;50104;52.002;4.688;2023-04-25T21:22:22;6.68;;;3.03;;
47545;SDS011;50104;52.002;4.688;2023-04-25T21:27:23;5.82;;;2.85;;
47545;SDS011;50104;52.002;4.688;2023-04-25T21:32:23;7.90;;;3.03;;
47545;SDS011;50104;52.002;4.688;2023-04-25T21:37:25;4.57;;;2.40;;
47545;SDS011;50104;52.002;4.688;2023-04-25T21:42:26;5.65;;;2.92;;
47545;SDS011;50104;52.002;4.688;2023-04-25T21:47:27;7.93;;;3.45;;
47545;SDS011;50104;52.002;4.688;2023-04-25T21:52:28;8.60;;;3.20;;
47545;SDS011;50104;52.002;4.688;2023-04-25T21:57:30;6.40;;;3.20;;
47545;SDS011;50104;52.002;4.688;2023-04-25T22:02:30;5.88;;;3.17;;
47545;SDS011;50104;52.002;4.688;2023-04-25T22:07:31;4.63;;;2.80;;
47545;SDS011;50104;52.002;4.688;2023-04-25T22:12:33;6.45;;;2.88;;
47545;SDS011;50104;52.002;4.688;2023-04-25T22:17:34;6.65;;;3.22;;
47545;SDS011;50104;52.002;4.688;2023-04-25T22:22:37;9.05;;;3.45;;
47545;SDS011;50104;52.002;4.688;2023-04-25T22:27:40;6.78;;;3.20;;
47545;SDS011;50104;52.002;4.688;2023-04-25T22:32:41;5.90;;;3.65;;
47545;SDS011;50104;52.002;4.688;2023-04-25T22:37:43;6.53;;;3.17;;
47545;SDS011;50104;52.002;4.688;2023-04-25T22:42:44;5.68;;;3.30;;
47545;SDS011;50104;52.002;4.688;2023-04-25T22:47:45;5.75;;;2.97;;
47545;SDS011;50104;52.002;4.688;2023-04-25T22:52:46;5.75;;;3.17;;
47545;SDS011;50104;52.002;4.688;2023-04-25T22:57:47;6.72;;;2.97;;
47545;SDS011;50104;52.002;4.688;2023-04-25T23:02:48;5.63;;;2.60;;
47545;SDS011;50104;52.002;4.688;2023-04-25T23:07:49;7.43;;;2.70;;
47545;SDS011;50104;52.002;4.688;2023-04-25T23:12:51;8.55;;;3.55;;
47545;SDS011;50104;52.002;4.688;2023-04-25T23:17:53;5.37;;;2.90;;
47545;SDS011;50104;52.002;4.688;2023-04-25T23:22:54;5.50;;;2.77;;
47545;SDS011;50104;52.002;4.688;2023-04-25T23:27:55;4.57;;;2.57;;
47545;SDS011;50104;52.002;4.688;2023-04-25T23:32:56;4.87;;;2.40;;
47545;SDS011;50104;52.002;4.688;2023-04-25T23:37:57;5.07;;;2.57;;
47545;SDS011;50104;52.002;4.688;2023-04-25T23:42:58;9.50;;;2.77;;
47545;SDS011;50104;52.002;4.688;2023-04-25T23:48:01;6.67;;;2.90;;
47545;SDS011;50104;52.002;4.688;2023-04-25T23:53:02;7.00;;;2.80;;
47545;SDS011;50104;52.002;4.688;2023-04-25T23:58:03;6.20;;;2.50;;
